Time;durP1;ratioP1;P1;durP2;ratioP2;P2;SDS_P1;SDS_P2;PMS_P1;PMS_P2;Temp;Humidity;BMP_temperature;BMP_pressure;BME280_temperature;BME280_humidity;BME280_pressure;Samples;Min_cycle;Max_cycle;Signal;HPM_P1;HPM_P2
2022/01/23 00:00:40;;;;;;;;;;;;;;;-144.99;100.00;52643.78;5036672;28;20004;-72
2022/01/23 00:03:10;;;;;;;;;;;;;;;-144.99;100.00;52615.25;5033919;28;19959;-72
2022/01/23 00:05:42;;;;;;;;;;;;;;;-144.99;100.00;52611.16;5034914;28;20046;-73
2022/01/23 00:08:09;;;;;;;;;;;;;;;-144.99;100.00;52582.63;5049764;28;19967;-74
2022/01/23 00:10:35;;;;;;;;;;;;;;;-144.99;100.00;52647.84;5049004;28;20315;-72
2022/01/23 00:13:10;;;;;;;;;;;;;;;-144.99;100.00;52645.81;5039081;28;19936;-72
2022/01/23 00:18:20;;;;;;;;;;;;;;;-144.99;100.00;52660.09;5048046;28;20443;-72
2022/01/23 00:20:48;;;;;;;;;;;;;;;-144.99;100.00;52643.78;5036337;28;19925;-73
2022/01/23 00:23:27;;;;;;;;;;;;;;;-144.99;100.00;52586.69;5041906;28;19926;-74
2022/01/23 00:31:22;;;;;;;;;;;;;;;-144.99;100.00;52619.31;5049507;28;19979;-77
2022/01/23 00:33:50;;;;;;;;;;;;;;;-144.99;100.00;52586.69;5037715;28;19933;-74
2022/01/23 00:36:17;;;;;;;;;;;;;;;-144.99;100.00;52635.63;5037576;28;20383;-76
2022/01/23 00:38:44;;;;;;;;;;;;;;;-144.99;100.00;52619.31;5035963;28;19925;-74
2022/01/23 00:41:10;;;;;;;;;;;;;;;-144.99;100.00;52635.63;5040593;28;20410;-77
2022/01/23 00:43:42;;;;;;;;;;;;;;;-144.99;100.00;52627.47;5039066;28;19933;-75
2022/01/23 00:46:20;;;;;;;;;;;;;;;-144.99;100.00;52605.03;5038766;28;19925;-72
2022/01/23 00:49:03;;;;;;;;;;;;;;;-144.99;100.00;52615.25;5048504;28;19928;-74
2022/01/23 00:51:32;;;;;;;;;;;;;;;-144.99;100.00;52611.16;5048492;28;20036;-73
2022/01/23 00:54:00;;;;;;;;;;;;;;;-144.99;100.00;52615.25;5043682;28;20023;-74
2022/01/23 00:56:27;;;;;;;;;;;;;;;-144.99;100.00;52639.69;5024147;28;19929;-72
2022/01/23 00:58:53;;;;;;;;;;;;;;;-144.99;100.00;52627.47;5037520;28;19928;-73
2022/01/23 01:01:19;;;;;;;;;;;;;;;-144.99;100.00;52623.38;5030459;28;19925;-72
2022/01/23 01:03:46;;;;;;;;;;;;;;;-144.99;100.00;52603.00;5034556;28;19936;-72
2022/01/23 01:06:12;;;;;;;;;;;;;;;-144.99;100.00;52603.00;5029806;28;19929;-74
2022/01/23 01:08:41;;;;;;;;;;;;;;;-144.99;100.00;52647.84;5039256;28;19936;-71
2022/01/23 01:11:26;;;;;;;;;;;;;;;-144.99;100.00;52613.19;5044469;28;20418;-75
2022/01/23 01:14:08;;;;;;;;;;;;;;;-144.99;100.00;52611.16;5048588;28;19937;-74
2022/01/23 01:16:52;;;;;;;;;;;;;;;-144.99;100.00;52635.63;5029421;28;19929;-73
2022/01/23 01:30:24;;;;;;;;;;;;;;;-144.99;100.00;52643.78;5048131;28;19955;-73
2022/01/23 01:33:01;;;;;;;;;;;;;;;-144.99;100.00;52600.97;5040150;28;19970;-73
2022/01/23 01:35:32;;;;;;;;;;;;;;;-144.99;100.00;52651.94;5042213;28;20031;-75
2022/01/23 01:37:59;;;;;;;;;;;;;;;-144.99;100.00;52607.09;5028784;28;20025;-74
2022/01/23 01:40:27;;;;;;;;;;;;;;;-144.99;100.00;52598.94;5031987;28;19932;-74
2022/01/23 01:42:54;;;;;;;;;;;;;;;-144.99;100.00;52623.38;5048442;28;19924;-73
2022/01/23 01:45:21;;;;;;;;;;;;;;;-144.99;100.00;52611.16;5047463;28;20144;-75
2022/01/23 01:47:48;;;;;;;;;;;;;;;-144.99;100.00;52643.78;5029418;28;20069;-72
2022/01/23 01:50:14;;;;;;;;;;;;;;;-144.99;100.00;52623.38;5046204;28;20012;-72
2022/01/23 01:52:41;;;;;;;;;;;;;;;-144.99;100.00;52607.09;5048184;28;20219;-73
2022/01/23 01:55:11;;;;;;;;;;;;;;;-144.99;100.00;52603.00;5045939;28;19934;-73
2022/01/23 01:57:44;;;;;;;;;;;;;;;-144.99;100.00;52558.16;5023362;28;19929;-72
2022/01/23 02:00:35;;;;;;;;;;;;;;;-144.99;100.00;52627.47;5031084;28;19932;-73
2022/01/23 02:08:31;;;;;;;;;;;;;;;-144.99;100.00;52598.94;5016975;28;19943;-73
2022/01/23 02:11:03;;;;;;;;;;;;;;;-144.99;100.00;52619.31;5046910;28;19963;-73
2022/01/23 02:13:34;;;;;;;;;;;;;;;-144.99;100.00;52611.16;5028986;28;20146;-73
2022/01/23 02:16:32;;;;;;;;;;;;;;;-144.99;100.00;52643.78;5044979;28;19932;-74
2022/01/23 02:25:03;;;;;;;;;;;;;;;-144.99;100.00;52607.09;5036150;28;20030;-74
2022/01/23 02:52:15;;;;;;;;;;;;;;;-144.99;100.00;52609.13;5047001;28;19982;-70
2022/01/23 02:54:55;;;;;;;;;;;;;;;-144.99;100.00;52607.09;5046854;28;19924;-72
2022/01/23 02:57:36;;;;;;;;;;;;;;;-144.99;100.00;52594.84;5032525;28;19925;-72
2022/01/23 03:00:10;;;;;;;;;;;;;;;-144.99;100.00;52625.44;5024043;28;20174;-72
2022/01/23 03:02:41;;;;;;;;;;;;;;;-144.99;100.00;52643.78;5027778;28;20071;-73
2022/01/23 03:05:12;;;;;;;;;;;;;;;-144.99;100.00;52623.38;5030928;28;19928;-71
2022/01/23 03:10:26;;;;;;;;;;;;;;;-144.99;100.00;52578.53;5030750;28;19932;-71
2022/01/23 03:24:18;;;;;;;;;;;;;;;-144.99;100.00;52623.38;5038137;28;19925;-72
2022/01/23 03:27:02;;;;;;;;;;;;;;;-144.99;100.00;52631.53;5033779;28;19929;-71
2022/01/23 03:29:40;;;;;;;;;;;;;;;-144.99;100.00;52623.38;5025431;28;19928;-73
2022/01/23 03:32:19;;;;;;;;;;;;;;;-144.99;100.00;52598.94;5045642;28;19928;-74
2022/01/23 03:34:46;;;;;;;;;;;;;;;-144.99;100.00;52631.53;5049799;28;20019;-75
2022/01/23 03:37:12;;;;;;;;;;;;;;;-144.99;100.00;52605.03;5036538;28;19928;-72
2022/01/23 03:39:38;;;;;;;;;;;;;;;-144.99;100.00;52574.47;5050174;28;20256;-70
2022/01/23 03:42:06;;;;;;;;;;;;;;;-144.99;100.00;52619.31;5031986;28;19929;-73
2022/01/23 03:44:38;;;;;;;;;;;;;;;-144.99;100.00;52615.25;5029597;28;19941;-74
2022/01/23 03:47:20;;;;;;;;;;;;;;;-144.99;100.00;52603.00;5048916;28;19929;-72
2022/01/23 03:49:48;;;;;;;;;;;;;;;-144.99;100.00;52615.25;5048731;28;20307;-71
2022/01/23 03:52:15;;;;;;;;;;;;;;;-144.99;100.00;52603.00;5041457;28;19925;-71
2022/01/23 03:54:41;;;;;;;;;;;;;;;-144.99;100.00;52566.31;5049101;28;19932;-71
2022/01/23 03:57:09;;;;;;;;;;;;;;;-144.99;100.00;52578.53;5037369;28;19983;-72
2022/01/23 03:59:36;;;;;;;;;;;;;;;-144.99;100.00;52586.69;5031896;28;19951;-71
2022/01/23 04:02:03;;;;;;;;;;;;;;;-144.99;100.00;52635.63;5031345;28;19937;-71
2022/01/23 04:04:39;;;;;;;;;;;;;;;-144.99;100.00;52603.00;5025341;28;20366;-72
2022/01/23 04:07:10;;;;;;;;;;;;;;;-144.99;100.00;52629.50;5043212;28;19926;-70
2022/01/23 04:09:40;;;;;;;;;;;;;;;-144.99;100.00;52633.59;5030414;28;20019;-71
2022/01/23 04:12:08;;;;;;;;;;;;;;;-144.99;100.00;52637.66;5040441;28;19929;-72
2022/01/23 04:14:42;;;;;;;;;;;;;;;-144.99;100.00;52609.13;5048838;28;19972;-73
2022/01/23 04:20:27;;;;;;;;;;;;;;;-144.99;100.00;52623.38;4713447;22;10000285;-76
2022/01/23 04:33:54;;;;;;;;;;;;;;;-144.99;100.00;52598.94;5029371;28;20420;-75
2022/01/23 05:01:18;;;;;;;;;;;;;;;-144.99;100.00;52613.19;5026409;28;19976;-76
2022/01/23 05:04:11;;;;;;;;;;;;;;;-144.99;100.00;52627.47;5031195;28;19925;-77
2022/01/23 05:06:42;;;;;;;;;;;;;;;-144.99;100.00;52647.84;5040913;28;19977;-76
2022/01/23 05:09:09;;;;;;;;;;;;;;;-144.99;100.00;52582.63;5032381;28;19971;-76
2022/01/23 05:11:36;;;;;;;;;;;;;;;-144.99;100.00;52633.59;5030397;28;19936;-75
2022/01/23 05:14:03;;;;;;;;;;;;;;;-144.99;100.00;52627.47;5029495;28;20320;-75
2022/01/23 05:16:30;;;;;;;;;;;;;;;-144.99;100.00;52574.47;5029427;28;19932;-76
2022/01/23 05:18:58;;;;;;;;;;;;;;;-144.99;100.00;52590.78;5028560;28;20078;-77
2022/01/23 05:21:50;;;;;;;;;;;;;;;-144.99;100.00;52611.16;5032793;28;19951;-75
2022/01/23 05:24:21;;;;;;;;;;;;;;;-144.99;100.00;52615.25;5027675;28;20009;-75
2022/01/23 05:26:47;;;;;;;;;;;;;;;-144.99;100.00;52631.53;5029255;28;20047;-76
2022/01/23 05:29:14;;;;;;;;;;;;;;;-144.99;100.00;52598.94;5029402;28;20012;-77
2022/01/23 05:31:41;;;;;;;;;;;;;;;-144.99;100.00;52643.78;5028781;28;19929;-76
2022/01/23 05:34:09;;;;;;;;;;;;;;;-144.99;100.00;52582.63;5029270;28;20209;-78
2022/01/23 05:36:35;;;;;;;;;;;;;;;-144.99;100.00;52600.97;5029212;28;19925;-78
2022/01/23 05:39:01;;;;;;;;;;;;;;;-144.99;100.00;52598.94;5028547;28;20296;-78
2022/01/23 05:41:28;;;;;;;;;;;;;;;-144.99;100.00;52672.31;5029358;28;19925;-80
2022/01/23 05:43:54;;;;;;;186.13;77.60;;;;;;;-144.99;100.00;52607.09;5034134;28;24486;-79
2022/01/23 05:46:21;;;;;;;;;;;;;;;-144.99;100.00;52594.84;5036322;28;20677;-77
2022/01/23 05:48:47;;;;;;;;;;;;;;;-144.99;100.00;52584.66;5028927;28;19940;-76
2022/01/23 05:51:15;;;;;;;;;;;;;;;-144.99;100.00;52598.94;5029368;28;19943;-78
2022/01/23 05:53:41;;;;;;;;;;;;;;;-144.99;100.00;52578.53;5029593;28;19921;-77
2022/01/23 05:56:08;;;;;;;;;;;;;;;-144.99;100.00;52603.00;5026480;28;20273;-78
2022/01/23 05:58:34;;;;;;;185.20;76.88;;;;;;;-144.99;100.00;52619.31;5033709;28;24511;-79
2022/01/23 06:01:01;;;;;;;;;;;;;;;-144.99;100.00;52607.09;5040050;28;20238;-79
2022/01/23 06:03:28;;;;;;;;;;;;;;;-144.99;100.00;52578.53;5033132;28;19924;-81
2022/01/23 06:05:57;;;;;;;;;;;;;;;-144.99;100.00;52598.94;5028279;28;20373;-79
2022/01/23 06:08:25;;;;;;;;;;;;;;;-144.99;100.00;52631.53;5028443;28;20356;-79
2022/01/23 06:10:56;;;;;;;;;;;;;;;-144.99;100.00;52619.31;5028064;28;19929;-77
2022/01/23 06:13:22;;;;;;;;;;;;;;;-144.99;100.00;52611.16;5028010;28;20362;-77
2022/01/23 06:16:00;;;;;;;;;;;;;;;-144.99;100.00;52562.25;5029076;28;19929;-79
2022/01/23 06:18:29;;;;;;;;;;;;;;;-144.99;100.00;52598.94;5028161;28;19921;-77
2022/01/23 06:20:55;;;;;;;;;;;;;;;-144.99;100.00;52584.66;5033727;28;19921;-77
2022/01/23 06:23:24;;;;;;;;;;;;;;;-144.99;100.00;52619.31;5032881;28;19921;-77
2022/01/23 06:25:51;;;;;;;;;;;;;;;-144.99;100.00;52631.53;5036621;28;19925;-77
2022/01/23 06:28:26;;;;;;;;;;;;;;;-144.99;100.00;52627.47;5017191;28;19951;-77
2022/01/23 06:30:53;;;;;;;;;;;;;;;-144.99;100.00;52582.63;5026631;28;20392;-77
2022/01/23 06:33:19;;;;;;;;;;;;;;;-144.99;100.00;52603.00;5027875;28;19950;-77
2022/01/23 06:35:45;;;;;;;;;;;;;;;-144.99;100.00;52615.25;5027849;28;19921;-77
2022/01/23 06:38:12;;;;;;;;;;;;;;;-144.99;100.00;52625.44;5028057;28;20020;-77
2022/01/23 06:40:38;;;;;;;;;;;;;;;-144.99;100.00;52643.78;5027869;28;19924;-76
2022/01/23 06:43:06;;;;;;;;;;;;;;;-144.99;100.00;52562.25;5028266;28;19925;-77
2022/01/23 06:45:32;;;;;;;;;;;;;;;-144.99;100.00;52603.00;5027513;28;19966;-77
2022/01/23 06:47:59;;;;;;;;;;;;;;;-144.99;100.00;52572.44;5027861;28;20014;-78
2022/01/23 06:50:28;;;;;;;;;;;;;;;-144.99;100.00;52627.47;5027875;28;19921;-76
2022/01/23 06:52:55;;;;;;;;;;;;;;;-144.99;100.00;52621.34;5028028;28;19948;-79
2022/01/23 06:55:21;;;;;;;;;;;;;;;-144.99;100.00;52617.28;5024136;28;19928;-78
2022/01/23 06:57:47;;;;;;;;;;;;;;;-144.99;100.00;52619.31;5029138;28;19929;-79
2022/01/23 07:00:15;;;;;;;;;;;;;;;-144.99;100.00;52643.78;5039520;28;19921;-78
2022/01/23 07:02:42;;;;;;;;;;;;;;;-144.99;100.00;52635.63;5039284;28;19971;-78
2022/01/23 07:05:08;;;;;;;;;;;;;;;-144.99;100.00;52639.69;5027167;28;19986;-77
2022/01/23 07:07:35;;;;;;;;;;;;;;;-144.99;100.00;52611.16;5027924;28;20451;-78
2022/01/23 07:10:01;;;;;;;;;;;;;;;-144.99;100.00;52623.38;5027612;28;19920;-77
2022/01/23 07:12:27;;;;;;;;;;;;;;;-144.99;100.00;52639.69;5028088;28;20383;-78
2022/01/23 07:14:54;;;;;;;;;;;;;;;-144.99;100.00;52611.16;5027839;28;19921;-77
2022/01/23 07:17:23;;;;;;;;;;;;;;;-144.99;100.00;52635.63;5027925;28;19980;-80
2022/01/23 07:19:51;;;;;;;;;;;;;;;-144.99;100.00;52619.31;5027465;28;19928;-77
2022/01/23 07:22:18;;;;;;;;;;;;;;;-144.99;100.00;52594.84;5032953;28;19925;-77
2022/01/23 07:24:44;;;;;;;;;;;;;;;-144.99;100.00;52621.34;5027366;28;20008;-78
2022/01/23 07:27:16;;;;;;;;;;;;;;;-144.99;100.00;52590.78;5041143;28;19921;-78
2022/01/23 07:29:43;;;;;;;;;;;;;;;-144.99;100.00;52598.94;5028282;28;20023;-79
2022/01/23 07:32:10;;;;;;;;;;;;;;;-144.99;100.00;52598.94;5029000;28;19952;-78
2022/01/23 07:34:38;;;;;;;;;;;;;;;-144.99;100.00;52615.25;5027605;28;20382;-78
2022/01/23 07:37:04;;;;;;;;;;;;;;;-144.99;100.00;52574.47;5028255;28;19925;-77
2022/01/23 07:39:31;;;;;;;;;;;;;;;-144.99;100.00;52639.69;5028793;28;20291;-78
2022/01/23 07:42:01;;;;;;;;;;;;;;;-144.99;100.00;52607.09;5031529;28;19932;-78
2022/01/23 07:44:27;;;;;;;;;;;;;;;-144.99;100.00;52623.38;5028864;28;19952;-77
2022/01/23 07:46:57;;;;;;;;;;;;;;;-144.99;100.00;52625.44;5028588;28;20039;-78
2022/01/23 07:49:23;;;;;;;;;;;;;;;-144.99;100.00;52613.19;5027831;28;20290;-78
2022/01/23 07:51:51;;;;;;;;;;;;;;;-144.99;100.00;52603.00;5028724;28;19997;-78
2022/01/23 07:54:17;;;;;;;;;;;;;;;-144.99;100.00;52590.78;5027424;28;19925;-78
2022/01/23 07:56:43;;;;;;;;;;;;;;;-144.99;100.00;52629.50;5025710;28;20225;-76
2022/01/23 07:59:10;;;;;;;;;;;;;;;-144.99;100.00;52594.84;5028001;28;19969;-78
2022/01/23 08:01:39;;;;;;;;;;;;;;;-144.99;100.00;52647.84;5030660;28;19933;-77
2022/01/23 08:04:06;;;;;;;176.23;74.00;;;;;;;-144.99;100.00;52623.38;5031629;28;19925;-77
2022/01/23 08:06:33;;;;;;;;;;;;;;;-144.99;100.00;52578.53;5032258;28;20319;-77
2022/01/23 08:09:01;;;;;;;;;;;;;;;-144.99;100.00;52578.53;5031227;28;19932;-79
2022/01/23 08:11:27;;;;;;;;;;;;;;;-144.99;100.00;52574.47;5031477;28;19924;-77
2022/01/23 08:13:58;;;;;;;;;;;;;;;-144.99;100.00;52613.19;5032683;28;19921;-80
2022/01/23 08:16:25;;;;;;;;;;;;;;;-144.99;100.00;52635.63;5034010;28;19924;-78
2022/01/23 08:18:51;;;;;;;;;;;;;;;-144.99;100.00;52570.38;5033912;28;20316;-77
2022/01/23 08:21:17;;;;;;;;;;;;;;;-144.99;100.00;52603.00;5036741;28;20391;-77
2022/01/23 08:23:44;;;;;;;;;;;;;;;-144.99;100.00;52574.47;5032464;28;19921;-78
2022/01/23 08:26:11;;;;;;;;;;;;;;;-144.99;100.00;52582.63;5030556;28;19921;-81
2022/01/23 08:28:37;;;;;;;;;;;;;;;-144.99;100.00;52592.81;5033105;28;19952;-79
2022/01/23 08:31:04;;;;;;;;;;;;;;;-144.99;100.00;52578.53;5031355;28;19966;-78
2022/01/23 08:33:30;;;;;;;;;;;;;;;-144.99;100.00;52611.16;5030667;28;19921;-79
2022/01/23 08:35:57;;;;;;;;;;;;;;;-144.99;100.00;52611.16;5037786;28;19920;-78
2022/01/23 08:38:23;;;;;;;;;;;;;;;-144.99;100.00;52584.66;5035571;28;20287;-76
2022/01/23 08:41:49;;;;;;;;;;;;;;;-144.99;100.00;52570.38;5029678;28;19932;-77
2022/01/23 08:43:42;;;;;;;;;;;;;;;-144.99;100.00;52586.69;5030156;28;19943;-79
2022/01/23 08:46:09;;;;;;;;;;;;;;;-144.99;100.00;52594.84;5030764;28;19932;-78
2022/01/23 08:48:35;;;;;;;;;;;;;;;-144.99;100.00;52603.00;5030622;28;20372;-78
2022/01/23 08:51:01;;;;;;;;;;;;;;;-144.99;100.00;52578.53;5030336;28;19932;-77
2022/01/23 08:53:28;;;;;;;168.35;72.60;;;;;;;-144.99;100.00;52592.81;5028822;28;24661;-78
2022/01/23 08:55:54;;;;;;;;;;;;;;;-144.99;100.00;52592.81;5026384;28;20205;-76
2022/01/23 08:58:21;;;;;;;;;;;;;;;-144.99;100.00;52578.53;5039129;28;19921;-77
2022/01/23 09:00:51;;;;;;;;;;;;;;;-144.99;100.00;52603.00;5040519;28;19921;-78
2022/01/23 09:03:20;;;;;;;;;;;;;;;-144.99;100.00;52603.00;5029738;28;19921;-76
2022/01/23 09:05:46;;;;;;;;;;;;;;;-144.99;100.00;52574.47;5022101;28;19921;-77
2022/01/23 09:08:13;;;;;;;;;;;;;;;-144.99;100.00;52576.50;5029248;28;20300;-77
2022/01/23 09:10:51;;;;;;;;;;;;;;;-144.99;100.00;52613.19;5030029;28;19989;-78
2022/01/23 09:13:30;;;;;;;;;;;;;;;-144.99;100.00;52586.69;5016988;28;20726;-76
2022/01/23 09:15:58;;;;;;;;;;;;;;;-144.99;100.00;52566.31;5031116;28;20410;-76
2022/01/23 09:18:25;;;;;;;;;;;;;;;-144.99;100.00;52582.63;5031169;28;22565;-77
2022/01/23 09:20:51;;;;;;;;;;;;;;;-144.99;100.00;52629.50;5035435;28;20019;-77
2022/01/23 09:23:18;;;;;;;;;;;;;;;-144.99;100.00;52582.63;5029914;28;19936;-78
2022/01/23 09:25:44;;;;;;;;;;;;;;;-144.99;100.00;52578.53;5030266;28;19921;-77
2022/01/23 09:28:13;;;;;;;;;;;;;;;-144.99;100.00;52598.94;5033019;28;19997;-77
2022/01/23 09:30:40;;;;;;;;;;;;;;;-144.99;100.00;52570.38;5029540;28;20340;-77
2022/01/23 09:33:08;;;;;;;;;;;;;;;-144.99;100.00;52586.69;5030484;28;19944;-77
2022/01/23 09:35:34;;;;;;;;;;;;;;;-144.99;100.00;52582.63;5030111;28;19927;-77
2022/01/23 09:38:01;;;;;;;;;;;;;;;-144.99;100.00;52594.84;5030329;28;19996;-76
2022/01/23 09:40:28;;;;;;;;;;;;;;;-144.99;100.00;52570.38;5029430;28;20368;-77
2022/01/23 09:42:59;;;;;;;;;;;;;;;-144.99;100.00;52582.63;5030242;28;19970;-77
2022/01/23 09:45:26;;;;;;;;;;;;;;;-144.99;100.00;52603.00;5030311;28;19928;-76
2022/01/23 09:47:54;;;;;;;;;;;;;;;-144.99;100.00;52568.34;5030161;28;19967;-76
2022/01/23 09:50:22;;;;;;;;;;;;;;;-144.99;100.00;52627.47;5030232;28;20032;-76
2022/01/23 09:52:52;;;;;;;;;;;;;;;-144.99;100.00;52558.16;5030145;28;19941;-75
2022/01/23 09:55:19;;;;;;;;;;;;;;;-144.99;100.00;52592.81;5013310;28;19969;-79
2022/01/23 09:57:47;;;;;;;;;;;;;;;-144.99;100.00;52623.38;5026529;28;20067;-76
2022/01/23 10:00:15;;;;;;;;;;;;;;;-144.99;100.00;52545.94;5038785;28;20006;-78
2022/01/23 10:02:42;;;;;;;;;;;;;;;-144.99;100.00;52586.69;5032024;28;19952;-76
2022/01/23 10:05:08;;;;;;;;;;;;;;;-144.99;100.00;52578.53;5028169;28;19929;-77
2022/01/23 10:07:38;;;;;;;;;;;;;;;-144.99;100.00;52554.09;5028576;28;19921;-76
2022/01/23 10:10:10;;;;;;;;;;;;;;;-144.99;100.00;52590.78;5028576;28;19921;-78
2022/01/23 10:12:38;;;;;;;;;;;;;;;-144.99;100.00;52537.78;5029030;28;19921;-76
2022/01/23 10:15:08;;;;;;;161.93;70.97;;;;;;;-144.99;100.00;52570.38;5030630;28;20814;-77
2022/01/23 10:17:35;;;;;;;;;;;;;;;-144.99;100.00;52566.31;5032622;28;20219;-77
2022/01/23 10:22:30;;;;;;;;;;;;;;;-144.99;100.00;52566.31;5038881;28;19921;-75
2022/01/23 10:25:05;;;;;;;;;;;;;;;-144.99;100.00;52578.53;5040895;28;19925;-76
2022/01/23 10:27:50;;;;;;;;;;;;;;;-144.99;100.00;52603.00;5040991;28;19927;-75
2022/01/23 10:30:23;;;;;;;;;;;;;;;-144.99;100.00;52525.56;5054129;28;19920;-76
2022/01/23 10:33:00;;;;;;;;;;;;;;;-144.99;100.00;52562.25;5071420;28;20075;-75
2022/01/23 10:35:26;;;;;;;;;;;;;;;-144.99;100.00;52594.84;5056308;28;19927;-76
2022/01/23 10:37:55;;;;;;;;;;;;;;;-144.99;100.00;52545.94;5057227;28;19996;-81
2022/01/23 10:40:29;;;;;;;;;;;;;;;-144.99;100.00;52568.34;5053211;28;20310;-78
2022/01/23 10:48:40;;;;;;;;;;;;;;;-144.99;100.00;52627.47;5052584;28;19927;-77
2022/01/23 10:51:14;;;;;;;;;;;;;;;-144.99;100.00;52615.25;5046936;28;19927;-77
2022/01/23 10:53:55;;;;;;;;;;;;;;;-144.99;100.00;52572.44;5038072;28;19928;-75
2022/01/23 10:56:23;;;;;;;;;;;;;;;-144.99;100.00;52586.69;5047884;28;19921;-76
2022/01/23 10:58:56;;;;;;;;;;;;;;;-144.99;100.00;52590.78;5047444;28;19929;-74
2022/01/23 11:01:23;;;;;;;;;;;;;;;-144.99;100.00;52590.78;5053606;28;19921;-77
2022/01/23 11:04:03;;;;;;;;;;;;;;;-144.99;100.00;52562.25;5044037;28;19931;-76
2022/01/23 11:06:29;;;;;;;;;;;;;;;-144.99;100.00;52545.94;5042920;28;19931;-77
2022/01/23 11:09:06;;;;;;;;;;;;;;;-144.99;100.00;52531.66;5039774;28;19925;-76
2022/01/23 11:11:43;;;;;;;;;;;;;;;-144.99;100.00;52570.38;5047623;28;19931;-76
2022/01/23 11:19:43;;;;;;;;;;;;;;;-144.99;100.00;52521.47;5044635;28;19928;-77
2022/01/23 11:22:15;;;;;;;;;;;;;;;-144.99;100.00;52439.94;5042447;28;19927;-77
2022/01/23 11:24:47;;;;;;;139.32;67.90;;;;;;;-144.99;91.43;52395.09;5042573;28;24989;-76
2022/01/23 11:27:16;;;;;;;173.37;75.73;;;;;;;-144.99;83.92;52427.72;5042656;28;20216;-77
2022/01/23 11:29:58;;;;;;;221.23;84.27;;;;;;;-144.99;72.99;52395.09;5043753;28;20641;-74
2022/01/23 11:32:28;;;;;;;221.00;86.17;;;;;;;-144.99;65.75;52456.25;5044162;28;21182;-77
2022/01/23 11:35:03;;;;;;;195.90;81.37;;;;;;;-144.99;63.48;52439.94;5061297;28;20667;-75
2022/01/23 11:37:30;;;;;;;183.17;79.90;;;;;;;-144.99;63.33;52403.25;5052412;28;20629;-76
2022/01/23 11:40:06;;;;;;;161.80;74.77;;;;;;;-144.99;61.46;52342.09;5061524;28;20629;-76
2022/01/23 11:51:21;;;;;;;150.13;72.77;;;;;;;-144.99;50.60;52289.13;5052872;28;20642;-76
2022/01/23 11:53:54;;;;;;;165.50;76.83;;;;;;;-144.99;48.75;52313.56;5040892;28;20633;-77
2022/01/23 11:56:40;;;;;;;146.33;72.43;;;;;;;-144.99;47.84;52386.94;5048912;28;20628;-77
2022/01/23 11:59:34;;;;;;;142.73;72.33;;;;;;;-144.99;46.35;52252.44;5049305;28;20682;-76
2022/01/23 12:02:34;;;;;;;139.33;70.67;;;;;;;-144.99;45.73;52417.53;5045121;28;20232;-77
2022/01/23 12:05:31;;;;;;;157.90;75.03;;;;;;;-144.99;45.33;52460.31;5053035;28;20295;-77
2022/01/23 12:08:35;;;;;;;148.67;72.77;;;;;;;-144.99;46.82;52439.94;5055855;28;20332;-76
2022/01/23 12:17:45;;;;;;;124.13;67.10;;;;;;;-144.99;55.51;52607.09;5072054;28;20251;-74
2022/01/23 12:20:12;;;;;;;107.93;63.08;;;;;;;-144.99;57.84;52603.00;5048937;28;20973;-75
2022/01/23 12:22:53;;;;;;;100.70;60.63;;;;;;;-144.99;60.97;52635.63;5052050;28;20243;-72
2022/01/23 12:25:30;;;;;;;93.20;58.22;;;;;;;-144.99;64.04;52558.16;5045060;28;20625;-72
2022/01/23 12:28:13;;;;;;;;;;;;;;;-144.99;65.05;52566.31;5053007;28;20632;-75
2022/01/23 12:30:42;;;;;;;111.88;63.40;;;;;;;-144.99;65.63;52550.00;5044174;28;19928;-76
2022/01/23 12:33:20;;;;;;;;;;;;;;;-144.99;65.28;52615.25;5053459;28;20261;-75
2022/01/23 12:35:48;;;;;;;;;;;;;;;-144.99;63.54;52603.00;5052791;28;19921;-76
2022/01/23 12:38:15;;;;;;;;;;;;;;;-144.99;60.26;52427.72;5073608;28;19921;-76
2022/01/23 12:40:45;;;;;;;;;;;;;;;-144.99;57.75;52525.56;5065188;28;20334;-74
2022/01/23 12:43:15;;;;;;;;;;;;;;;-144.99;55.63;52368.59;5052854;28;19928;-74
2022/01/23 12:45:46;;;;;;;;;;;;;;;-144.99;53.72;52321.72;5053966;28;19927;-76
2022/01/23 12:48:40;;;;;;;110.90;62.83;;;;;;;-144.99;51.74;52456.25;5063043;28;24509;-76
2022/01/23 12:51:08;;;;;;;110.70;63.83;;;;;;;-144.99;50.99;52427.72;5061896;28;20259;-76
2022/01/23 12:53:36;;;;;;;121.03;65.97;;;;;;;-144.99;50.96;52537.78;5060008;28;20211;-75
2022/01/23 12:56:06;;;;;;;93.07;58.47;;;;;;;-144.99;51.40;52386.94;5051783;28;20205;-74
2022/01/23 12:58:33;;;;;;;109.15;63.30;;;;;;;-144.99;49.21;52376.75;5051860;28;20208;-75
2022/01/23 13:01:01;;;;;;;131.23;68.50;;;;;;;-144.99;47.70;52472.56;5059055;28;20318;-75
2022/01/23 13:03:28;;;;;;;124.55;67.28;;;;;;;-144.99;46.43;52378.78;5066202;28;20216;-74
2022/01/23 13:05:56;;;;;;;126.20;68.40;;;;;;;-144.99;46.30;52407.31;5071596;28;20215;-75
2022/01/23 13:08:27;;;;;;;116.85;65.75;;;;;;;-144.99;45.55;52407.31;5071403;28;20224;-75
2022/01/23 13:11:22;;;;;;;126.55;68.50;;;;;;;-144.99;45.10;52391.03;5070548;28;20232;-74
2022/01/23 13:13:58;;;;;;;120.68;66.78;;;;;;;-144.99;45.55;52325.81;5057485;28;20262;-75
2022/01/23 13:16:33;;;;;;;115.15;65.18;;;;;;;-144.99;45.24;52460.31;5045289;28;20208;-75
2022/01/23 13:30:15;;;;;;;91.20;58.53;;;;;;;-144.99;50.58;52547.97;5033463;28;20220;-74
2022/01/23 13:32:45;;;;;;;102.22;61.55;;;;;;;-144.99;52.76;52590.78;5051054;28;20296;-75
2022/01/23 13:35:15;;;;;;;107.97;62.65;;;;;;;-144.99;53.87;52594.84;5050448;28;20212;-73
2022/01/23 13:37:45;;;;;;;107.90;62.45;;;;;;;-144.99;55.12;52590.78;5057563;28;20560;-72
2022/01/23 13:40:14;;;;;;;98.13;60.00;;;;;;;-144.99;56.88;52668.22;5051082;28;20209;-74
2022/01/23 13:51:31;;;;;;;105.75;60.15;;;;;;;-144.99;64.19;52664.16;5058565;28;20645;-75
2022/01/23 13:54:18;;;;;;;;;;;;;;;-144.99;65.64;52660.09;5039032;28;20250;-74
2022/01/23 13:59:34;;;;;;;;;;;;;;;-144.99;70.38;52688.63;5051049;28;20728;-74
2022/01/23 14:02:16;;;;;;;145.40;70.93;;;;;;;-144.99;71.67;52688.63;5038566;28;24507;-74
2022/01/23 14:04:43;;;;;;;;;;;;;;;-144.99;73.21;52672.31;5053977;28;20674;-75
2022/01/23 14:07:09;;;;;;;151.10;72.97;;;;;;;-144.99;74.42;52713.09;5051432;28;24523;-73
2022/01/23 14:09:44;;;;;;;127.22;64.70;;;;;;;-144.99;76.20;52709.00;5053639;28;20441;-74
2022/01/23 14:12:12;;;;;;;120.20;63.28;;;;;;;-144.99;77.32;52709.00;5070615;28;20785;-72
2022/01/23 14:14:50;;;;;;;;;;;;;;;-144.99;79.34;52704.94;5070727;28;20220;-75
2022/01/23 14:17:17;;;;;;;;;;;;;;;-144.99;83.28;52704.94;5071525;28;19927;-76
2022/01/23 14:19:56;;;;;;;167.50;76.13;;;;;;;-144.99;84.87;52694.72;5056145;28;24496;-75
2022/01/23 14:22:27;;;;;;;123.80;63.25;;;;;;;-144.99;86.56;52717.16;5038916;28;20273;-74
2022/01/23 14:25:07;;;;;;;123.32;62.60;;;;;;;-144.99;86.80;52702.88;5056157;28;20208;-74
2022/01/23 14:27:33;;;;;;;;;;;;;;;-144.99;87.82;52723.28;5051337;28;20247;-71
2022/01/23 14:30:02;;;;;;;;;;;;;;;-144.99;87.91;52684.53;5046182;28;20414;-75
2022/01/23 14:32:34;;;;;;;;;;;;;;;-144.99;88.30;52664.16;5048326;28;19932;-74
2022/01/23 14:35:05;;;;;;;;;;;;;;;-144.99;89.24;52725.31;5050356;28;19920;-73
2022/01/23 14:37:31;;;;;;;;;;;;;;;-144.99;89.55;52704.94;5044179;28;19924;-74
2022/01/23 14:40:09;;;;;;;;;;;;;;;-144.99;90.46;52690.66;5056637;28;19920;-76
2022/01/23 14:42:36;;;;;;;;;;;;;;;-144.99;90.11;52680.47;5071805;28;19927;-75
2022/01/23 14:45:05;;;;;;;;;;;;;;;-144.99;90.34;52700.84;5070683;28;19908;-75
2022/01/23 14:47:34;;;;;;;;;;;;;;;-144.99;90.18;52713.09;5065248;28;20266;-74
2022/01/23 14:50:02;;;;;;;;;;;;;;;-144.99;90.47;52709.00;5064128;28;19921;-76
2022/01/23 14:52:28;;;;;;;;;;;;;;;-144.99;90.34;52704.94;5082928;28;19979;-75
2022/01/23 14:54:57;;;;;;;;;;;;;;;-144.99;91.20;52713.09;5074359;28;20000;-76
2022/01/23 14:57:24;;;;;;;;;;;;;;;-144.99;91.35;52711.03;5079331;28;19946;-76
2022/01/23 14:59:51;;;;;;;;;;;;;;;-144.99;91.11;52704.94;5067767;28;19920;-75